Meath Environmental Platform

Observations for Trim Patrick St

Time AQI Temp °C Hum % Pres Pa CO μg/m³ H₂S μg/m³ NO μg/m³ NO₂ μg/m³ O₃ μg/m³ SO₂ μg/m³ PM1 μg/m³ PM2.5 μg/m³ PM10 μg/m³
Saturday 8 August 2026
17:33 3 34 29 69,448 0 0 0.54 13.42 88.1 20.41 2.86 8.52 9.37
17:32 3 34.2 29 69,456 0 0 0.51 12.87 82.52 19.68 2 7.73 8.5
17:31 3 34.2 29 69,465 0 0 0.52 13.02 70.33 19.52 2 7.72 8.49
17:30 3 34.3 29 69,481 0 0 0.52 12.95 75.21 19.35 2 8.54 9.39
17:29 3 34.2 30 69,493 0 2.84 0.51 13.26 116.33 20.38 2 7.68 8.45
17:28 3 34.1 29 69,479 0 0 0.54 12.81 108.26 20.4 2 8.54 9.39
17:27 3 34.1 29 69,465 0 0 0.53 12.08 84.49 20.27 2 7.74 8.51
17:26 3 34 29 69,446 0 0 0.55 12.37 82.33 19.98 2 7.74 8.51
17:25 3 34 30 69,446 0 0 0.54 12.63 75.82 18.68 2 7.68 8.45
17:23 3 33.7 31 69,456 0 1.45 0.56 12.78 99.29 20.16 2 7.64 8.4
17:22 3 33.7 30 69,462 0 7.89 0.59 13.48 96.25 20.04 2 7.64 8.41
17:21 3 33.8 30 69,467 0 12.86 0.57 33.81 72.42 19.15 2 8.48 9.33
17:20 3 33.9 30 69,450 0 3.53 0.53 13.17 99.23 20.39 2 7.68 8.45
17:13 3 34.4 30 69,475 0 6.27 0.39 13.55 110.71 21.3 2 7.69 8.46
17:12 3 34.5 29 69,483 0 0 0.42 13.3 97.2 19.66 2.86 8.53 9.39
17:11 3 34.4 30 69,464 0 0 0.39 12.84 111.94 20.21 2.86 8.45 9.3
17:10 3 34.3 31 69,473 0 0 0.38 12.63 82.29 20.29 2.86 8.41 9.25
17:07 3 33.9 31 69,438 0 0 0.52 12.89 100.28 19.74 2.86 8.4 9.24
17:04 3 33.7 31 69,442 0 0 0.5 11.04 91.59 20.06 2 7.59 8.35
17:03 3 33.7 31 69,440 0 0 0.53 11.04 81.78 19.38 2 8.43 9.27